createdAt,value
2022-10-07T00:00:55.818Z,3.70
2022-10-07T00:03:26.966Z,3.97
2022-10-07T00:06:25.648Z,3.63
2022-10-07T00:08:53.866Z,2.80
2022-10-07T00:11:23.974Z,2.70
2022-10-07T00:13:54.203Z,2.80
2022-10-07T00:16:24.708Z,2.47
2022-10-07T00:18:54.674Z,2.57
2022-10-07T00:21:21.473Z,3.10
2022-10-07T00:23:48.718Z,2.47
2022-10-07T00:26:18.693Z,2.97
2022-10-07T00:28:46.545Z,2.70
2022-10-07T00:31:22.457Z,2.90
2022-10-07T00:33:49.977Z,3.30
2022-10-07T00:36:20.699Z,3.10
2022-10-07T00:39:05.220Z,2.17
2022-10-07T00:41:38.886Z,2.73
2022-10-07T00:44:34.176Z,2.37
2022-10-07T00:47:21.470Z,3.27
2022-10-07T00:49:57.970Z,3.40
2022-10-07T00:52:28.086Z,2.60
2022-10-07T00:54:57.534Z,2.63
2022-10-07T00:57:27.643Z,2.77
2022-10-07T00:59:57.037Z,2.77
2022-10-07T01:02:25.742Z,3.17
2022-10-07T01:04:54.663Z,3.13
2022-10-07T01:07:21.770Z,3.20
2022-10-07T01:09:51.291Z,3.27
2022-10-07T01:12:36.037Z,2.73
2022-10-07T01:15:32.769Z,4.30
2022-10-07T01:18:11.991Z,3.97
2022-10-07T01:20:59.569Z,2.93
2022-10-07T01:23:44.555Z,4.80
2022-10-07T01:26:45.133Z,2.93
2022-10-07T01:29:18.805Z,3.27
2022-10-07T01:31:53.465Z,2.57
2022-10-07T01:34:23.784Z,2.87
2022-10-07T01:36:54.113Z,2.87
2022-10-07T01:39:27.626Z,2.77
2022-10-07T01:41:54.586Z,2.67
2022-10-07T01:44:21.661Z,3.50
2022-10-07T01:46:49.796Z,3.10
2022-10-07T01:49:16.402Z,3.53
2022-10-07T01:51:55.419Z,3.50
2022-10-07T01:54:41.191Z,2.90
2022-10-07T01:57:27.166Z,3.30
2022-10-07T02:00:07.921Z,3.17
2022-10-07T02:03:02.267Z,3.10
2022-10-07T02:05:52.149Z,3.70
2022-10-07T02:08:51.469Z,3.70
2022-10-07T02:11:23.414Z,3.40
2022-10-07T02:14:03.570Z,2.90
2022-10-07T02:16:42.020Z,3.03
2022-10-07T02:19:15.434Z,3.30
2022-10-07T02:21:45.735Z,3.00
2022-10-07T02:24:14.718Z,2.77
2022-10-07T02:26:43.845Z,3.67
2022-10-07T02:29:14.525Z,3.20
2022-10-07T02:31:44.678Z,3.00
2022-10-07T02:34:19.583Z,3.30
2022-10-07T02:37:01.285Z,2.87
2022-10-07T02:39:29.292Z,3.20
2022-10-07T02:42:13.935Z,3.07
2022-10-07T02:44:52.734Z,3.20
2022-10-07T02:47:36.312Z,3.00
2022-10-07T02:50:07.658Z,3.07
2022-10-07T02:52:35.287Z,3.37
2022-10-07T02:55:07.736Z,3.57
2022-10-07T02:57:39.541Z,3.10
2022-10-07T03:00:11.106Z,2.80
2022-10-07T03:02:57.675Z,3.07
2022-10-07T03:05:34.973Z,2.87
2022-10-07T03:08:07.429Z,2.93
2022-10-07T03:10:34.753Z,3.00
2022-10-07T03:13:04.791Z,3.00
2022-10-07T03:15:39.772Z,2.87
2022-10-07T03:18:26.185Z,2.63
2022-10-07T03:20:57.492Z,2.70
2022-10-07T03:23:24.671Z,3.37
2022-10-07T03:25:53.511Z,3.10
2022-10-07T03:28:22.813Z,2.93
2022-10-07T03:30:50.460Z,3.80
2022-10-07T03:33:20.100Z,2.67
2022-10-07T03:35:47.283Z,2.57
2022-10-07T03:38:13.882Z,3.10
2022-10-07T03:40:44.126Z,2.90
2022-10-07T03:43:11.759Z,2.77
2022-10-07T03:45:51.247Z,2.80
2022-10-07T03:48:18.580Z,2.63
2022-10-07T03:50:52.780Z,2.73
2022-10-07T03:53:22.017Z,3.13
2022-10-07T03:55:48.717Z,3.00
2022-10-07T03:58:15.364Z,2.93
2022-10-07T04:00:43.032Z,2.83
2022-10-07T04:03:10.111Z,2.73
2022-10-07T04:05:37.097Z,3.10
2022-10-07T04:08:04.853Z,2.67
2022-10-07T04:10:34.010Z,3.03
2022-10-07T04:13:01.024Z,2.70
2022-10-07T04:15:27.880Z,3.07
2022-10-07T04:17:58.530Z,3.30
2022-10-07T04:20:26.352Z,2.90
2022-10-07T04:22:53.787Z,2.97
2022-10-07T04:25:37.527Z,2.80
2022-10-07T04:28:19.896Z,3.70
2022-10-07T04:30:51.539Z,2.80
2022-10-07T04:33:22.919Z,3.00
2022-10-07T04:35:50.942Z,3.23
2022-10-07T04:38:18.844Z,3.30
2022-10-07T04:40:49.957Z,3.00
2022-10-07T04:43:23.124Z,2.77
2022-10-07T04:46:02.811Z,2.87
2022-10-07T04:48:29.860Z,2.90
2022-10-07T04:51:02.087Z,2.90
2022-10-07T04:53:29.211Z,3.07
2022-10-07T04:55:56.402Z,3.20
2022-10-07T04:58:24.393Z,2.93
2022-10-07T05:00:53.074Z,3.27
2022-10-07T05:03:25.750Z,3.20
2022-10-07T05:05:55.010Z,2.93
2022-10-07T05:08:24.900Z,3.93
2022-10-07T05:10:57.019Z,2.80
2022-10-07T05:13:26.200Z,3.23
2022-10-07T05:15:59.357Z,3.47
2022-10-07T05:18:28.416Z,3.20
2022-10-07T05:20:58.290Z,3.30
2022-10-07T05:23:31.435Z,2.50
2022-10-07T05:26:02.983Z,2.80
2022-10-07T05:28:30.662Z,2.77
2022-10-07T05:31:13.219Z,2.93
2022-10-07T05:33:42.777Z,2.93
2022-10-07T05:36:10.835Z,3.33
2022-10-07T05:38:37.698Z,2.97
2022-10-07T05:41:07.086Z,2.90
2022-10-07T05:43:39.815Z,3.27
2022-10-07T05:46:14.186Z,3.40
2022-10-07T05:48:46.998Z,3.37
2022-10-07T05:51:14.276Z,3.23
2022-10-07T05:53:42.847Z,3.13
2022-10-07T05:56:13.949Z,3.67
2022-10-07T05:58:41.147Z,3.23
2022-10-07T06:01:14.624Z,3.40
2022-10-07T06:03:43.912Z,3.27
2022-10-07T06:06:11.657Z,3.00
2022-10-07T06:08:38.426Z,3.47
2022-10-07T06:11:25.729Z,3.07
2022-10-07T06:13:54.669Z,3.03
2022-10-07T06:16:22.496Z,3.43
2022-10-07T06:18:52.233Z,3.30
2022-10-07T06:21:25.805Z,3.07
2022-10-07T06:23:53.128Z,3.17
2022-10-07T06:26:23.697Z,3.13
2022-10-07T06:28:51.311Z,3.37
2022-10-07T06:31:22.424Z,3.23
2022-10-07T06:33:50.406Z,3.20
2022-10-07T06:36:17.995Z,2.60
2022-10-07T06:38:48.611Z,3.67
2022-10-07T06:41:18.348Z,3.73
2022-10-07T06:43:46.833Z,3.23
2022-10-07T06:46:19.963Z,3.30
2022-10-07T06:48:50.476Z,3.33
2022-10-07T06:51:21.600Z,3.33
2022-10-07T06:53:57.834Z,3.97
2022-10-07T06:56:25.854Z,3.07
2022-10-07T06:58:52.761Z,3.10
2022-10-07T07:01:28.629Z,3.33
2022-10-07T07:03:56.030Z,3.77
2022-10-07T07:06:23.654Z,3.37
2022-10-07T07:08:51.098Z,3.93
2022-10-07T07:11:37.658Z,3.37
2022-10-07T07:14:12.287Z,3.20
2022-10-07T07:16:42.111Z,3.27
2022-10-07T07:19:12.340Z,7.07
2022-10-07T07:21:41.144Z,7.03
2022-10-07T07:24:11.404Z,4.93
2022-10-07T07:26:40.337Z,4.90
2022-10-07T07:29:10.964Z,5.13
2022-10-07T07:31:42.926Z,6.37
2022-10-07T07:34:12.969Z,6.50
2022-10-07T07:36:46.594Z,5.90
2022-10-07T07:39:17.557Z,7.00
2022-10-07T07:41:50.819Z,6.23
2022-10-07T07:44:20.189Z,5.27
2022-10-07T07:46:51.143Z,6.57
2022-10-07T07:49:21.100Z,4.50
2022-10-07T07:51:48.132Z,3.60
2022-10-07T07:54:22.258Z,4.63
2022-10-07T07:56:49.709Z,3.10
2022-10-07T07:59:19.398Z,3.90
2022-10-07T08:01:48.073Z,3.17
2022-10-07T08:04:16.045Z,3.40
2022-10-07T08:06:43.146Z,3.50
2022-10-07T08:09:09.872Z,3.77
2022-10-07T08:11:37.807Z,3.87
2022-10-07T08:14:04.662Z,3.90
2022-10-07T08:16:34.837Z,3.90
2022-10-07T08:19:01.673Z,4.80
2022-10-07T08:21:32.738Z,4.63
2022-10-07T08:24:02.706Z,12.60
2022-10-07T08:26:34.710Z,8.97
2022-10-07T08:29:04.734Z,3.60
2022-10-07T08:31:33.314Z,6.63
2022-10-07T08:34:01.895Z,4.70
2022-10-07T08:36:32.525Z,5.30
2022-10-07T08:39:00.650Z,5.30
2022-10-07T08:42:08.320Z,9.17
2022-10-07T08:44:40.965Z,7.23
2022-10-07T08:47:25.770Z,7.13
2022-10-07T08:50:03.863Z,11.13
2022-10-07T08:52:39.579Z,6.23
2022-10-07T08:55:28.227Z,4.20
2022-10-07T08:58:32.366Z,4.27
2022-10-07T09:01:26.289Z,4.10
2022-10-07T09:04:05.065Z,4.20
2022-10-07T09:06:40.187Z,3.67
2022-10-07T09:09:14.723Z,3.57
2022-10-07T09:11:45.235Z,3.83
2022-10-07T09:14:26.229Z,4.10
2022-10-07T09:16:56.530Z,4.20
2022-10-07T09:19:32.052Z,6.10
2022-10-07T09:22:19.504Z,4.10
2022-10-07T09:24:49.091Z,3.37
2022-10-07T09:27:18.175Z,3.93
2022-10-07T09:29:44.901Z,3.27
2022-10-07T09:32:14.208Z,4.70
2022-10-07T09:34:41.386Z,3.80
2022-10-07T09:37:24.557Z,3.90
2022-10-07T09:39:53.566Z,3.47
2022-10-07T09:42:43.128Z,3.90
2022-10-07T09:45:25.162Z,3.83
2022-10-07T09:47:55.346Z,3.83
2022-10-07T09:50:31.149Z,5.80
2022-10-07T09:52:58.070Z,11.80
2022-10-07T09:55:37.321Z,8.00
2022-10-07T09:58:26.843Z,5.77
2022-10-07T10:00:56.118Z,8.40
2022-10-07T10:03:33.968Z,11.53
2022-10-07T10:06:03.563Z,17.87
2022-10-07T10:08:33.942Z,13.33
2022-10-07T10:11:03.234Z,9.20
2022-10-07T10:13:33.857Z,18.00
2022-10-07T10:16:02.725Z,7.43
2022-10-07T10:18:52.945Z,4.87
2022-10-07T10:21:29.816Z,8.00
2022-10-07T10:23:59.279Z,6.10
2022-10-07T10:26:33.855Z,5.43
2022-10-07T10:29:25.633Z,5.83
2022-10-07T10:32:01.276Z,4.60
2022-10-07T10:34:52.583Z,4.83
2022-10-07T10:37:24.450Z,4.60
2022-10-07T10:40:19.145Z,4.67
2022-10-07T10:43:03.822Z,4.93
2022-10-07T10:45:58.537Z,4.90
2022-10-07T10:48:48.955Z,4.47
2022-10-07T10:51:46.370Z,4.77
2022-10-07T10:54:27.889Z,5.13
2022-10-07T10:57:01.766Z,4.70
2022-10-07T10:59:47.141Z,4.63
2022-10-07T11:02:35.774Z,4.70
2022-10-07T11:05:22.018Z,4.40
2022-10-07T11:08:17.306Z,4.80
2022-10-07T11:10:51.616Z,4.43
2022-10-07T11:13:21.167Z,5.13
2022-10-07T11:15:53.858Z,5.07
2022-10-07T11:18:32.709Z,5.67
2022-10-07T11:21:01.361Z,4.80
2022-10-07T11:23:41.273Z,4.83
2022-10-07T11:26:19.856Z,4.60
2022-10-07T11:28:47.577Z,4.67
2022-10-07T11:31:50.288Z,6.13
2022-10-07T11:34:19.354Z,13.93
2022-10-07T11:37:07.085Z,9.00
2022-10-07T11:39:38.042Z,12.03
2022-10-07T11:42:11.140Z,25.90
2022-10-07T11:44:55.648Z,38.87
2022-10-07T11:47:26.261Z,9.57
2022-10-07T11:50:18.290Z,31.10
2022-10-07T11:52:51.220Z,13.57
2022-10-07T11:55:32.629Z,7.90
2022-10-07T11:58:04.213Z,7.90
2022-10-07T12:00:34.692Z,6.50
2022-10-07T12:03:33.322Z,6.40
2022-10-07T12:06:13.022Z,6.33
2022-10-07T12:08:42.052Z,7.27
2022-10-07T12:11:12.340Z,5.50
2022-10-07T12:13:45.215Z,5.70
2022-10-07T12:16:24.082Z,6.33
2022-10-07T12:19:06.263Z,5.20
2022-10-07T12:22:02.876Z,5.20
2022-10-07T12:24:36.880Z,5.57
2022-10-07T12:27:28.907Z,5.73
2022-10-07T12:30:02.194Z,5.40
2022-10-07T12:32:48.033Z,4.90
2022-10-07T12:35:30.085Z,5.17
2022-10-07T12:38:24.557Z,5.27
2022-10-07T12:41:11.852Z,5.33
2022-10-07T12:43:50.718Z,6.03
2022-10-07T12:46:20.764Z,5.67
2022-10-07T12:48:59.604Z,4.80
2022-10-07T12:51:30.670Z,5.00
2022-10-07T12:53:59.363Z,5.37
2022-10-07T12:56:30.420Z,4.67
2022-10-07T12:59:30.962Z,5.70
2022-10-07T13:02:25.773Z,7.13
2022-10-07T13:05:17.284Z,5.33
2022-10-07T13:08:00.490Z,5.73
2022-10-07T13:11:00.516Z,5.00
2022-10-07T13:13:55.815Z,5.40
2022-10-07T13:16:31.923Z,4.47
2022-10-07T13:19:19.583Z,4.37
2022-10-07T13:22:13.361Z,4.00
2022-10-07T13:24:54.571Z,4.20
2022-10-07T13:27:27.866Z,3.53
2022-10-07T13:29:57.434Z,7.20
2022-10-07T13:32:35.229Z,5.53
2022-10-07T13:35:34.044Z,6.67
2022-10-07T13:38:03.562Z,6.87
2022-10-07T13:40:35.501Z,4.43
2022-10-07T13:43:07.031Z,4.43
2022-10-07T13:45:45.144Z,7.43
2022-10-07T13:48:25.086Z,7.63
2022-10-07T13:50:55.497Z,16.67
2022-10-07T13:53:34.774Z,8.17
2022-10-07T13:56:08.745Z,6.07
2022-10-07T13:58:37.003Z,5.10
2022-10-07T14:01:05.635Z,4.67
2022-10-07T14:03:32.618Z,4.30
2022-10-07T14:05:59.698Z,4.77
2022-10-07T14:08:28.286Z,4.73
2022-10-07T14:10:58.213Z,4.50
2022-10-07T14:13:27.510Z,4.67
2022-10-07T14:15:56.259Z,6.80
2022-10-07T14:18:23.681Z,6.77
2022-10-07T14:20:53.985Z,3.87
2022-10-07T14:23:25.042Z,4.20
2022-10-07T14:25:56.955Z,5.07
2022-10-07T14:28:23.841Z,3.87
2022-10-07T14:31:28.600Z,3.60
2022-10-07T14:34:38.917Z,3.37
2022-10-07T14:37:28.440Z,4.00
2022-10-07T14:39:58.710Z,3.40
2022-10-07T14:42:32.901Z,3.93
2022-10-07T14:45:03.212Z,4.33
2022-10-07T14:47:37.635Z,3.53
2022-10-07T14:50:04.731Z,3.97
2022-10-07T14:52:51.771Z,3.53
2022-10-07T14:55:23.565Z,3.23
2022-10-07T14:57:50.538Z,3.80
2022-10-07T15:00:23.041Z,3.40
2022-10-07T15:02:50.764Z,3.90
2022-10-07T15:05:21.710Z,4.70
2022-10-07T15:07:49.896Z,4.53
2022-10-07T15:10:19.805Z,3.23
2022-10-07T15:12:47.414Z,3.57
2022-10-07T15:15:15.076Z,3.90
2022-10-07T15:17:42.471Z,12.57
2022-10-07T15:20:11.878Z,5.47
2022-10-07T15:22:38.517Z,13.83
2022-10-07T15:25:07.638Z,28.93
2022-10-07T15:27:34.544Z,20.30
2022-10-07T15:30:01.210Z,11.07
2022-10-07T15:32:30.156Z,19.07
2022-10-07T15:34:58.042Z,9.63
2022-10-07T15:37:27.402Z,11.53
2022-10-07T15:39:54.825Z,8.37
2022-10-07T15:42:24.439Z,7.93
2022-10-07T15:44:51.367Z,16.37
2022-10-07T15:47:18.603Z,16.67
2022-10-07T15:49:45.350Z,5.80
2022-10-07T15:52:12.181Z,6.17
2022-10-07T15:54:39.321Z,14.63
2022-10-07T15:57:06.340Z,6.77
2022-10-07T15:59:33.042Z,7.43
2022-10-07T16:01:59.869Z,3.73
2022-10-07T16:04:26.776Z,3.03
2022-10-07T16:06:53.592Z,4.13
2022-10-07T16:09:22.138Z,3.53
2022-10-07T16:11:49.789Z,4.27
2022-10-07T16:14:16.672Z,3.90
2022-10-07T16:16:43.505Z,4.07
2022-10-07T16:19:11.721Z,3.70
2022-10-07T16:21:40.709Z,3.63
2022-10-07T16:24:13.133Z,3.90
2022-10-07T16:26:40.177Z,4.23
2022-10-07T16:29:30.319Z,4.00
2022-10-07T16:31:59.113Z,4.77
2022-10-07T16:34:28.211Z,3.80
2022-10-07T16:36:55.842Z,4.80
2022-10-07T16:39:22.820Z,6.47
2022-10-07T16:41:51.726Z,4.70
2022-10-07T16:44:19.687Z,6.03
2022-10-07T16:46:46.965Z,8.63
2022-10-07T16:49:17.164Z,5.60
2022-10-07T16:51:44.828Z,5.23
2022-10-07T16:54:16.712Z,13.03
2022-10-07T16:56:49.884Z,24.77
2022-10-07T16:59:23.732Z,21.83
2022-10-07T17:01:53.059Z,7.37
2022-10-07T17:04:20.283Z,5.87
2022-10-07T17:06:47.336Z,18.10
2022-10-07T17:09:14.056Z,12.20
2022-10-07T17:11:41.627Z,9.93
2022-10-07T17:14:11.749Z,9.87
2022-10-07T17:16:42.138Z,8.37
2022-10-07T17:19:12.070Z,7.03
2022-10-07T17:21:41.748Z,6.30
2022-10-07T17:24:09.803Z,5.83
2022-10-07T17:26:37.807Z,6.47
2022-10-07T17:29:07.735Z,5.47
2022-10-07T17:31:38.946Z,5.10
2022-10-07T17:34:07.009Z,5.07
2022-10-07T17:36:35.007Z,5.53
2022-10-07T17:39:01.971Z,6.63
2022-10-07T17:41:31.376Z,5.43
2022-10-07T17:44:00.997Z,6.23
2022-10-07T17:46:30.308Z,6.33
2022-10-07T17:48:59.177Z,8.37
2022-10-07T17:51:28.988Z,7.37
2022-10-07T17:53:57.768Z,6.60
2022-10-07T17:56:24.676Z,6.20
2022-10-07T17:58:51.426Z,7.10
2022-10-07T18:01:22.647Z,6.70
2022-10-07T18:04:15.268Z,6.50
2022-10-07T18:06:43.279Z,6.47
2022-10-07T18:09:13.735Z,7.40
2022-10-07T18:11:58.952Z,11.03
2022-10-07T18:14:44.333Z,12.10
2022-10-07T18:17:11.106Z,6.47
2022-10-07T18:19:39.574Z,10.10
2022-10-07T18:22:06.436Z,7.53
2022-10-07T18:24:33.208Z,5.87
2022-10-07T18:27:01.168Z,6.43
2022-10-07T18:29:29.434Z,7.90
2022-10-07T18:31:56.407Z,10.63
2022-10-07T18:34:23.508Z,9.10
2022-10-07T18:36:55.213Z,23.17
2022-10-07T18:39:23.258Z,12.83
2022-10-07T18:41:49.988Z,10.17
2022-10-07T18:44:16.727Z,10.00
2022-10-07T18:46:43.372Z,9.37
2022-10-07T18:49:13.499Z,17.73
2022-10-07T18:51:40.873Z,9.23
2022-10-07T18:54:07.605Z,10.60
2022-10-07T18:56:39.795Z,11.63
2022-10-07T18:59:09.475Z,9.10
2022-10-07T19:01:37.214Z,18.33
2022-10-07T19:04:04.901Z,12.10
2022-10-07T19:06:33.467Z,20.40
2022-10-07T19:09:02.627Z,9.73
2022-10-07T19:11:30.450Z,9.33
2022-10-07T19:13:59.055Z,11.10
2022-10-07T19:16:38.101Z,8.27
2022-10-07T19:19:14.830Z,10.07
2022-10-07T19:21:41.844Z,10.80
2022-10-07T19:24:08.800Z,11.20
2022-10-07T19:26:38.272Z,11.30
2022-10-07T19:29:06.613Z,8.53
2022-10-07T19:31:36.054Z,10.30
2022-10-07T19:34:05.495Z,14.43
2022-10-07T19:36:35.022Z,14.63
2022-10-07T19:39:03.281Z,12.17
2022-10-07T19:41:33.085Z,12.13
2022-10-07T19:44:00.649Z,19.17
2022-10-07T19:46:30.166Z,10.23
2022-10-07T19:48:58.813Z,7.63
2022-10-07T19:51:27.807Z,9.47
2022-10-07T19:53:57.259Z,10.83
2022-10-07T19:56:30.364Z,12.10
2022-10-07T19:59:05.318Z,10.23
2022-10-07T20:01:35.761Z,10.27
2022-10-07T20:04:15.044Z,11.50
2022-10-07T20:06:42.607Z,8.33
2022-10-07T20:09:12.326Z,7.47
2022-10-07T20:11:39.011Z,7.43
2022-10-07T20:14:06.609Z,6.17
2022-10-07T20:16:34.593Z,6.57
2022-10-07T20:19:05.754Z,6.20
2022-10-07T20:21:35.932Z,7.00
2022-10-07T20:24:03.462Z,7.37
2022-10-07T20:26:32.452Z,7.03
2022-10-07T20:29:00.960Z,5.90
2022-10-07T20:31:34.920Z,7.63
2022-10-07T20:34:03.040Z,7.07
2022-10-07T20:36:35.123Z,7.97
2022-10-07T20:39:26.321Z,6.10
2022-10-07T20:42:12.185Z,7.60
2022-10-07T20:44:39.283Z,10.17
2022-10-07T20:47:07.952Z,8.23
2022-10-07T20:49:37.170Z,8.67
2022-10-07T20:52:06.970Z,12.40
2022-10-07T20:54:33.703Z,7.70
2022-10-07T20:57:00.441Z,12.40
2022-10-07T20:59:29.162Z,8.93
2022-10-07T21:01:57.265Z,8.93
2022-10-07T21:04:28.560Z,12.90
2022-10-07T21:06:56.777Z,12.57
2022-10-07T21:09:24.901Z,11.50
2022-10-07T21:11:52.917Z,8.73
2022-10-07T21:14:19.990Z,9.30
2022-10-07T21:16:47.528Z,10.83
2022-10-07T21:19:15.291Z,8.73
2022-10-07T21:21:41.978Z,9.23
2022-10-07T21:24:08.868Z,9.20
2022-10-07T21:26:36.448Z,8.47
2022-10-07T21:29:04.979Z,7.50
2022-10-07T21:31:31.641Z,7.40
2022-10-07T21:34:01.537Z,5.80
2022-10-07T21:36:28.589Z,5.20
2022-10-07T21:38:58.284Z,7.00
2022-10-07T21:41:38.627Z,9.07
2022-10-07T21:44:11.422Z,8.47
2022-10-07T21:46:40.011Z,8.97
2022-10-07T21:49:07.674Z,7.57
2022-10-07T21:51:35.037Z,5.60
2022-10-07T21:54:02.887Z,6.13
2022-10-07T21:56:31.622Z,8.03
2022-10-07T21:59:01.185Z,6.83
2022-10-07T22:01:28.685Z,6.80
2022-10-07T22:03:59.721Z,7.63
2022-10-07T22:06:46.663Z,9.30
2022-10-07T22:09:18.470Z,9.23
2022-10-07T22:11:45.281Z,9.07
2022-10-07T22:14:13.065Z,5.97
2022-10-07T22:16:40.252Z,6.60
2022-10-07T22:19:07.638Z,6.67
2022-10-07T22:21:35.737Z,5.93
2022-10-07T22:24:05.100Z,6.67
2022-10-07T22:26:36.357Z,6.40
2022-10-07T22:29:03.121Z,5.93
2022-10-07T22:31:30.277Z,6.67
2022-10-07T22:33:59.760Z,6.60
2022-10-07T22:36:28.155Z,7.13
2022-10-07T22:39:02.165Z,5.87
2022-10-07T22:41:29.453Z,7.60
2022-10-07T22:43:56.307Z,12.27
2022-10-07T22:46:28.003Z,8.23
2022-10-07T22:48:58.387Z,9.40
2022-10-07T22:51:28.431Z,9.13
2022-10-07T22:53:56.291Z,9.40
2022-10-07T22:56:24.748Z,6.20
2022-10-07T22:58:57.928Z,7.27
2022-10-07T23:01:25.517Z,6.87
2022-10-07T23:03:52.767Z,10.57
2022-10-07T23:06:19.816Z,6.63
2022-10-07T23:08:47.843Z,6.10
2022-10-07T23:11:22.126Z,9.90
2022-10-07T23:13:50.960Z,8.53
2022-10-07T23:16:19.725Z,6.67
2022-10-07T23:18:48.244Z,6.87
2022-10-07T23:21:20.620Z,8.00
2022-10-07T23:23:49.979Z,7.10
2022-10-07T23:26:19.905Z,6.47
2022-10-07T23:28:49.376Z,7.73
2022-10-07T23:31:18.301Z,10.60
2022-10-07T23:33:51.665Z,8.03
2022-10-07T23:36:22.975Z,9.07
2022-10-07T23:38:51.109Z,8.33
2022-10-07T23:41:20.848Z,12.17
2022-10-07T23:43:49.654Z,6.67
2022-10-07T23:46:17.655Z,6.30
2022-10-07T23:48:44.393Z,8.13
2022-10-07T23:51:13.317Z,9.27
2022-10-07T23:53:40.038Z,9.87
2022-10-07T23:56:07.124Z,8.33
2022-10-07T23:58:34.878Z,11.50
